Time;durP1;ratioP1;P1;durP2;ratioP2;P2;SDS_P1;SDS_P2;PMS_P1;PMS_P2;Temp;Humidity;BMP_temperature;BMP_pressure;BME280_temperature;BME280_humidity;BME280_pressure;Samples;Min_cycle;Max_cycle;Signal;HPM_P1;HPM_P2
2022/03/11 00:02:14;;;;;;;3.40;1.70;;;;;;;;;;5063114;28;20190;-68
2022/03/11 00:04:47;;;;;;;2.40;1.93;;;;;;;;;;5079643;28;20196;-68
2022/03/11 00:07:18;;;;;;;2.30;2.03;;;;;;;;;;5064015;28;20349;-68
2022/03/11 00:09:50;;;;;;;2.17;1.90;;;;;;;;;;5069950;28;20198;-68
2022/03/11 00:12:19;;;;;;;2.63;2.40;;;;;;;;;;5044693;28;20198;-67
2022/03/11 00:14:47;;;;;;;3.10;2.40;;;;;;;;;;5070179;28;20200;-68
2022/03/11 00:17:19;;;;;;;2.20;2.00;;;;;;;;;;5070127;28;20196;-68
2022/03/11 00:19:49;;;;;;;2.40;2.20;;;;;;;;;;5069668;28;20205;-68
2022/03/11 00:22:18;;;;;;;3.20;1.90;;;;;;;;;;5064903;28;20824;-68
2022/03/11 00:24:49;;;;;;;3.57;2.37;;;;;;;;;;5068871;28;20201;-68
2022/03/11 00:27:20;;;;;;;2.47;1.73;;;;;;;;;;5062273;28;20259;-68
2022/03/11 00:29:49;;;;;;;3.13;2.03;;;;;;;;;;5071916;28;20186;-67
2022/03/11 00:32:21;;;;;;;2.20;1.97;;;;;;;;;;5066901;28;20322;-68
2022/03/11 00:34:50;;;;;;;2.67;1.90;;;;;;;;;;5067308;28;20861;-68
2022/03/11 00:37:21;;;;;;;3.13;2.10;;;;;;;;;;5050925;28;20216;-68
2022/03/11 00:39:54;;;;;;;1.60;1.50;;;;;;;;;;5069919;28;20237;-68
2022/03/11 00:42:24;;;;;;;2.20;1.77;;;;;;;;;;5068183;28;20202;-68
2022/03/11 00:44:54;;;;;;;1.67;1.57;;;;;;;;;;5051996;28;20193;-68
2022/03/11 00:47:28;;;;;;;2.60;1.97;;;;;;;;;;5058923;28;20194;-68
2022/03/11 00:49:58;;;;;;;2.23;1.90;;;;;;;;;;5068624;28;20239;-67
2022/03/11 00:52:31;;;;;;;2.30;1.70;;;;;;;;;;5069122;28;20604;-68
2022/03/11 00:55:03;;;;;;;2.27;2.07;;;;;;;;;;5058988;28;20221;-68
2022/03/11 00:57:34;;;;;;;2.07;1.97;;;;;;;;;;5068953;28;20193;-68
2022/03/11 01:00:03;;;;;;;2.20;2.00;;;;;;;;;;5063457;28;20255;-67
2022/03/11 01:02:39;;;;;;;1.93;1.80;;;;;;;;;;5068943;28;20202;-68
2022/03/11 01:05:10;;;;;;;3.03;1.83;;;;;;;;;;5050842;28;20262;-68
2022/03/11 01:07:52;;;;;;;2.63;1.97;;;;;;;;;;5066925;28;20253;-68
2022/03/11 01:10:25;;;;;;;1.97;1.83;;;;;;;;;;5065254;28;20213;-69
2022/03/11 01:12:59;;;;;;;1.80;1.60;;;;;;;;;;5067850;28;20264;-68
2022/03/11 01:15:31;;;;;;;1.80;1.70;;;;;;;;;;5068393;28;20190;-68
2022/03/11 01:17:58;;;;;;;4.27;1.80;;;;;;;;;;5067816;28;20708;-68
2022/03/11 01:20:29;;;;;;;1.97;1.77;;;;;;;;;;5068078;28;20587;-68
2022/03/11 01:22:59;;;;;;;2.07;1.70;;;;;;;;;;5048739;28;20217;-68
2022/03/11 01:25:33;;;;;;;1.80;1.70;;;;;;;;;;5050520;28;20208;-68
2022/03/11 01:28:04;;;;;;;2.10;1.83;;;;;;;;;;5061075;28;20338;-68
2022/03/11 01:30:33;;;;;;;2.57;2.27;;;;;;;;;;5049252;28;20203;-68
2022/03/11 01:33:02;;;;;;;2.23;1.73;;;;;;;;;;5048877;28;20198;-68
2022/03/11 01:35:34;;;;;;;2.33;1.77;;;;;;;;;;5046162;28;20593;-69
2022/03/11 01:38:07;;;;;;;1.90;1.70;;;;;;;;;;5045854;28;20214;-68
2022/03/11 01:40:42;;;;;;;2.20;1.83;;;;;;;;;;5048111;28;20206;-68
2022/03/11 01:43:20;;;;;;;2.10;1.90;;;;;;;;;;5040561;28;20197;-68
2022/03/11 01:45:52;;;;;;;2.10;1.90;;;;;;;;;;5048596;28;20205;-68
2022/03/11 01:48:22;;;;;;;2.30;2.10;;;;;;;;;;5044799;28;20226;-68
2022/03/11 01:50:52;;;;;;;2.20;2.00;;;;;;;;;;5039649;28;20191;-67
2022/03/11 01:53:21;;;;;;;3.00;2.30;;;;;;;;;;5048220;28;20190;-68
2022/03/11 01:55:57;;;;;;;2.77;2.20;;;;;;;;;;5047142;28;20631;-68
2022/03/11 01:58:26;;;;;;;3.63;2.23;;;;;;;;;;5046900;28;20218;-68
2022/03/11 02:00:56;;;;;;;2.00;1.90;;;;;;;;;;5039415;28;20240;-68
2022/03/11 02:03:28;;;;;;;3.60;2.20;;;;;;;;;;5046453;28;20202;-68
2022/03/11 02:06:01;;;;;;;2.10;1.90;;;;;;;;;;5045415;28;20198;-68
2022/03/11 02:08:30;;;;;;;2.33;2.03;;;;;;;;;;5047258;28;20723;-68
2022/03/11 02:11:03;;;;;;;2.37;2.17;;;;;;;;;;5039124;28;20215;-67
2022/03/11 02:13:53;;;;;;;2.47;2.27;;;;;;;;;;5039475;28;20205;-68
2022/03/11 02:16:30;;;;;;;2.67;2.40;;;;;;;;;;5021039;28;20206;-68
2022/03/11 02:19:00;;;;;;;2.33;2.13;;;;;;;;;;5048046;28;20213;-68
2022/03/11 02:21:53;;;;;;;2.50;2.03;;;;;;;;;;5048986;28;20532;-67
2022/03/11 02:24:27;;;;;;;2.97;2.40;;;;;;;;;;5043390;28;20785;-68
2022/03/11 02:27:12;;;;;;;2.47;2.27;;;;;;;;;;5050751;28;20179;-68
2022/03/11 02:29:44;;;;;;;2.87;2.57;;;;;;;;;;5070903;28;20557;-68
2022/03/11 02:32:18;;;;;;;2.50;2.30;;;;;;;;;;5053910;28;20311;-68
2022/03/11 02:34:52;;;;;;;2.57;2.10;;;;;;;;;;5064896;28;20201;-68
2022/03/11 02:37:22;;;;;;;2.97;2.40;;;;;;;;;;5067615;28;20201;-68
2022/03/11 02:39:57;;;;;;;2.70;2.50;;;;;;;;;;5048272;28;20205;-68
2022/03/11 02:42:27;;;;;;;2.37;2.17;;;;;;;;;;5067631;28;20197;-68
2022/03/11 02:44:56;;;;;;;2.83;2.50;;;;;;;;;;5066802;28;20194;-68
2022/03/11 02:47:25;;;;;;;2.60;2.40;;;;;;;;;;5068624;28;20220;-68
2022/03/11 02:49:58;;;;;;;2.27;2.00;;;;;;;;;;5059522;28;20204;-68
2022/03/11 02:52:31;;;;;;;2.37;2.10;;;;;;;;;;5055300;28;20202;-68
2022/03/11 02:55:03;;;;;;;2.60;2.37;;;;;;;;;;5073397;28;20224;-67
2022/03/11 02:57:36;;;;;;;3.33;2.30;;;;;;;;;;5067096;28;20210;-68
2022/03/11 03:00:09;;;;;;;2.63;2.33;;;;;;;;;;5045826;28;20202;-67
2022/03/11 03:02:41;;;;;;;4.43;2.30;;;;;;;;;;5076511;28;20212;-68
2022/03/11 03:05:13;;;;;;;3.80;2.67;;;;;;;;;;5065771;28;20194;-68
2022/03/11 03:07:44;;;;;;;2.57;2.37;;;;;;;;;;5065892;28;20665;-68
2022/03/11 03:10:17;;;;;;;2.83;2.63;;;;;;;;;;5052925;28;20209;-68
2022/03/11 03:12:49;;;;;;;2.53;2.33;;;;;;;;;;5066279;28;20218;-68
2022/03/11 03:15:20;;;;;;;2.80;2.60;;;;;;;;;;5066851;28;20272;-68
2022/03/11 03:17:49;;;;;;;3.07;2.70;;;;;;;;;;5065600;28;20718;-68
2022/03/11 03:20:19;;;;;;;2.70;2.47;;;;;;;;;;5064970;28;20201;-68
2022/03/11 03:22:50;;;;;;;2.60;2.40;;;;;;;;;;5065002;28;20245;-68
2022/03/11 03:25:21;;;;;;;3.20;2.67;;;;;;;;;;5060420;28;20275;-69
2022/03/11 03:27:53;;;;;;;3.00;2.70;;;;;;;;;;5065401;28;20228;-68
2022/03/11 03:30:23;;;;;;;2.37;2.17;;;;;;;;;;5068524;28;20205;-67
2022/03/11 03:32:54;;;;;;;2.30;2.10;;;;;;;;;;5060248;28;20194;-68
2022/03/11 03:35:23;;;;;;;2.60;2.40;;;;;;;;;;5064323;28;20213;-67
2022/03/11 03:37:54;;;;;;;3.80;2.40;;;;;;;;;;5068087;28;20185;-68
2022/03/11 03:40:22;;;;;;;2.67;2.47;;;;;;;;;;5065618;28;20206;-68
2022/03/11 03:43:00;;;;;;;2.97;2.53;;;;;;;;;;5057091;28;20193;-68
2022/03/11 03:45:34;;;;;;;3.27;2.60;;;;;;;;;;5065186;28;20205;-68
2022/03/11 03:48:06;;;;;;;2.37;2.17;;;;;;;;;;5061198;28;20266;-68
2022/03/11 03:50:36;;;;;;;2.40;2.20;;;;;;;;;;5076211;28;20190;-69
2022/03/11 03:53:05;;;;;;;2.40;2.00;;;;;;;;;;5081999;28;20203;-68
2022/03/11 03:55:35;;;;;;;3.00;2.70;;;;;;;;;;5065330;28;20194;-68
2022/03/11 03:58:07;;;;;;;2.90;2.40;;;;;;;;;;5062659;28;20638;-68
2022/03/11 04:00:38;;;;;;;3.27;2.13;;;;;;;;;;5065806;28;20186;-68
2022/03/11 04:03:10;;;;;;;2.83;2.20;;;;;;;;;;5056895;28;20194;-68
2022/03/11 04:05:41;;;;;;;2.60;2.40;;;;;;;;;;5066729;28;20205;-68
2022/03/11 04:08:13;;;;;;;2.43;2.20;;;;;;;;;;5067473;28;20186;-67
2022/03/11 04:10:43;;;;;;;2.90;2.47;;;;;;;;;;5069372;28;20643;-67
2022/03/11 04:13:11;;;;;;;2.37;2.17;;;;;;;;;;5072470;28;20205;-67
2022/03/11 04:15:43;;;;;;;2.80;2.43;;;;;;;;;;5042058;28;20281;-67
2022/03/11 04:18:14;;;;;;;2.50;2.20;;;;;;;;;;5050918;28;20197;-68
2022/03/11 04:20:46;;;;;;;4.10;2.73;;;;;;;;;;5067061;28;20198;-67
2022/03/11 04:23:17;;;;;;;2.47;2.27;;;;;;;;;;5038138;28;20205;-68
2022/03/11 04:25:49;;;;;;;3.07;2.43;;;;;;;;;;5066223;28;20209;-68
2022/03/11 04:28:19;;;;;;;2.30;2.10;;;;;;;;;;5075850;28;20587;-68
2022/03/11 04:30:47;;;;;;;2.87;2.13;;;;;;;;;;5066374;28;20503;-68
2022/03/11 04:33:16;;;;;;;3.03;2.27;;;;;;;;;;5065797;28;20198;-68
2022/03/11 04:35:49;;;;;;;2.87;2.37;;;;;;;;;;5062926;28;20210;-68
2022/03/11 04:38:24;;;;;;;3.67;2.13;;;;;;;;;;5065931;28;20281;-68
2022/03/11 04:40:56;;;;;;;2.63;2.40;;;;;;;;;;5064942;28;20225;-68
2022/03/11 04:43:25;;;;;;;2.73;2.37;;;;;;;;;;5052263;28;20630;-68
2022/03/11 04:45:56;;;;;;;2.53;2.33;;;;;;;;;;5056464;28;20623;-68
2022/03/11 04:48:26;;;;;;;2.83;2.40;;;;;;;;;;5039941;28;20229;-68
2022/03/11 04:50:56;;;;;;;3.13;2.50;;;;;;;;;;5082279;28;20197;-68
2022/03/11 04:53:23;;;;;;;4.33;2.57;;;;;;;;;;5058485;28;20836;-68
2022/03/11 04:55:54;;;;;;;2.67;2.40;;;;;;;;;;5071025;28;20190;-68
2022/03/11 04:58:25;;;;;;;3.40;2.80;;;;;;;;;;5075366;28;20244;-69
2022/03/11 05:01:02;;;;;;;2.93;2.57;;;;;;;;;;5071187;28;20193;-68
2022/03/11 05:03:36;;;;;;;2.97;2.67;;;;;;;;;;5068484;28;20292;-68
2022/03/11 05:06:12;;;;;;;2.53;2.33;;;;;;;;;;5065966;28;20189;-68
2022/03/11 05:08:42;;;;;;;2.50;2.30;;;;;;;;;;5069092;28;20209;-68
2022/03/11 05:11:13;;;;;;;3.10;2.40;;;;;;;;;;5064395;28;20245;-68
2022/03/11 05:13:40;;;;;;;3.30;2.40;;;;;;;;;;5068490;28;20182;-68
2022/03/11 05:16:11;;;;;;;2.57;2.37;;;;;;;;;;5072173;28;20190;-68
2022/03/11 05:18:41;;;;;;;2.60;2.40;;;;;;;;;;5068519;28;20524;-68
2022/03/11 05:21:14;;;;;;;2.90;2.60;;;;;;;;;;5049311;28;20785;-68
2022/03/11 05:23:44;;;;;;;4.23;2.90;;;;;;;;;;5064085;28;20209;-68
2022/03/11 05:26:35;;;;;;;2.43;2.23;;;;;;;;;;5065375;28;20269;-68
2022/03/11 05:29:10;;;;;;;3.50;3.00;;;;;;;;;;5068485;28;20807;-68
2022/03/11 05:31:41;;;;;;;3.27;2.70;;;;;;;;;;5067295;28;20200;-68
2022/03/11 05:34:11;;;;;;;3.00;2.70;;;;;;;;;;5065665;28;20197;-68
2022/03/11 05:36:43;;;;;;;3.23;2.83;;;;;;;;;;5072759;28;20200;-68
2022/03/11 05:39:13;;;;;;;3.10;2.80;;;;;;;;;;5071055;28;20213;-69
2022/03/11 05:41:48;;;;;;;3.43;2.83;;;;;;;;;;5068236;28;20194;-68
2022/03/11 05:44:19;;;;;;;4.10;2.70;;;;;;;;;;5049649;28;20236;-68
2022/03/11 05:46:55;;;;;;;3.10;2.80;;;;;;;;;;5064735;28;20587;-68
2022/03/11 05:49:27;;;;;;;2.90;2.60;;;;;;;;;;5068503;28;20221;-68
2022/03/11 05:51:57;;;;;;;3.03;2.73;;;;;;;;;;5081211;28;20197;-67
2022/03/11 05:54:24;;;;;;;3.10;2.80;;;;;;;;;;5061501;28;20273;-68
2022/03/11 05:56:59;;;;;;;3.30;3.00;;;;;;;;;;5093701;28;20224;-67
2022/03/11 05:59:29;;;;;;;3.40;3.10;;;;;;;;;;5059698;28;20214;-68
2022/03/11 06:02:00;;;;;;;3.50;3.20;;;;;;;;;;5065285;28;20283;-68
2022/03/11 06:04:33;;;;;;;3.63;3.10;;;;;;;;;;5086302;28;20209;-68
2022/03/11 06:07:07;;;;;;;3.57;3.20;;;;;;;;;;5053642;28;20209;-67
2022/03/11 06:09:38;;;;;;;3.50;3.20;;;;;;;;;;5067745;28;20690;-67
2022/03/11 06:12:08;;;;;;;4.37;3.33;;;;;;;;;;5063746;28;20209;-66
2022/03/11 06:14:37;;;;;;;5.90;3.67;;;;;;;;;;5067528;28;20643;-66
2022/03/11 06:17:06;;;;;;;5.57;3.63;;;;;;;;;;5050479;28;20423;-66
2022/03/11 06:19:38;;;;;;;4.83;3.43;;;;;;;;;;5067471;28;20217;-67
2022/03/11 06:22:09;;;;;;;5.40;4.13;;;;;;;;;;5059965;28;20637;-67
2022/03/11 06:24:37;;;;;;;6.83;4.27;;;;;;;;;;5065638;28;20243;-66
2022/03/11 06:27:09;;;;;;;6.03;3.83;;;;;;;;;;5067016;28;20229;-67
2022/03/11 06:29:36;;;;;;;9.33;4.37;;;;;;;;;;5066912;28;20234;-66
2022/03/11 06:32:07;;;;;;;6.23;3.77;;;;;;;;;;5065314;28;20193;-66
2022/03/11 06:34:42;;;;;;;7.77;4.43;;;;;;;;;;5067553;28;20219;-67
2022/03/11 06:37:12;;;;;;;8.67;5.10;;;;;;;;;;5074207;28;20544;-68
2022/03/11 06:39:41;;;;;;;9.40;4.27;;;;;;;;;;5066801;28;20209;-67
2022/03/11 06:42:14;;;;;;;9.90;4.90;;;;;;;;;;5064572;28;20213;-67
2022/03/11 06:44:43;;;;;;;9.20;5.27;;;;;;;;;;5068333;28;20198;-66
2022/03/11 06:47:12;;;;;;;7.47;4.70;;;;;;;;;;5065822;28;20247;-68
2022/03/11 06:49:42;;;;;;;7.10;4.70;;;;;;;;;;5072110;28;20217;-68
2022/03/11 06:52:14;;;;;;;7.17;5.20;;;;;;;;;;5048049;28;20190;-68
2022/03/11 06:54:43;;;;;;;7.03;5.03;;;;;;;;;;5054547;28;20213;-68
2022/03/11 06:57:18;;;;;;;8.23;4.90;;;;;;;;;;5067968;28;20615;-68
2022/03/11 06:59:56;;;;;;;7.10;4.93;;;;;;;;;;5064777;28;20298;-68
2022/03/11 07:02:27;;;;;;;7.27;5.23;;;;;;;;;;5067997;28;20238;-67
2022/03/11 07:05:06;;;;;;;7.27;4.93;;;;;;;;;;5073387;28;20255;-67
2022/03/11 07:07:35;;;;;;;6.10;5.03;;;;;;;;;;5069055;28;20186;-67
2022/03/11 07:10:16;;;;;;;10.40;5.00;;;;;;;;;;5061014;28;20692;-67
2022/03/11 07:13:02;;;;;;;7.00;5.03;;;;;;;;;;5052906;28;20275;-67
2022/03/11 07:15:37;;;;;;;6.87;5.33;;;;;;;;;;5043815;28;20205;-66
2022/03/11 07:18:21;;;;;;;7.90;4.73;;;;;;;;;;5061744;28;20276;-66
2022/03/11 07:20:53;;;;;;;6.43;5.07;;;;;;;;;;5069058;28;20206;-66
2022/03/11 07:23:33;;;;;;;6.53;5.30;;;;;;;;;;5063601;28;20221;-66
2022/03/11 07:26:12;;;;;;;7.00;4.97;;;;;;;;;;5064778;28;20201;-67
2022/03/11 07:28:44;;;;;;;7.73;4.70;;;;;;;;;;5063946;28;20233;-66
2022/03/11 07:31:27;;;;;;;7.10;5.10;;;;;;;;;;5060987;28;20249;-67
2022/03/11 07:33:59;;;;;;;7.80;4.93;;;;;;;;;;5063757;28;20296;-66
2022/03/11 07:36:27;;;;;;;5.97;5.30;;;;;;;;;;5059563;28;20204;-70
2022/03/11 07:38:57;;;;;;;7.10;4.43;;;;;;;;;;5063867;28;20295;-68
2022/03/11 07:41:29;;;;;;;5.80;4.67;;;;;;;;;;5066916;28;20650;-66
2022/03/11 07:44:02;;;;;;;8.77;4.87;;;;;;;;;;5047409;28;20193;-67
2022/03/11 07:46:47;;;;;;;5.93;4.73;;;;;;;;;;5050838;28;20217;-67
2022/03/11 07:49:18;;;;;;;7.33;5.53;;;;;;;;;;5066909;28;20281;-67
2022/03/11 07:51:55;;;;;;;6.93;5.00;;;;;;;;;;5067037;28;20201;-69
2022/03/11 07:54:24;;;;;;;7.87;5.60;;;;;;;;;;5066423;28;20196;-67
2022/03/11 07:56:55;;;;;;;5.17;4.53;;;;;;;;;;5063269;28;20228;-69
2022/03/11 07:59:25;;;;;;;6.33;5.10;;;;;;;;;;5064644;28;20205;-69
2022/03/11 08:01:59;;;;;;;5.87;4.70;;;;;;;;;;5079458;28;20209;-67
2022/03/11 08:04:30;;;;;;;6.63;4.57;;;;;;;;;;5066335;28;20725;-67
2022/03/11 08:07:05;;;;;;;5.53;4.90;;;;;;;;;;5074395;28;20198;-68
2022/03/11 08:09:51;;;;;;;5.90;5.30;;;;;;;;;;5078878;28;20600;-67
2022/03/11 08:12:20;;;;;;;5.63;5.10;;;;;;;;;;5060444;28;20890;-67
2022/03/11 08:14:53;;;;;;;7.20;5.40;;;;;;;;;;5048769;28;20202;-67
2022/03/11 08:17:25;;;;;;;10.73;5.83;;;;;;;;;;5064466;28;20205;-65
2022/03/11 08:20:06;;;;;;;5.90;5.30;;;;;;;;;;5063623;28;20185;-68
2022/03/11 08:22:42;;;;;;;7.87;5.33;;;;;;;;;;5076200;28;20209;-70
2022/03/11 08:25:15;;;;;;;12.27;5.67;;;;;;;;;;5067358;28;20813;-68
2022/03/11 08:27:48;;;;;;;14.37;5.57;;;;;;;;;;5050246;28;20210;-69
2022/03/11 08:30:24;;;;;;;11.57;6.13;;;;;;;;;;5038598;28;20680;-71
2022/03/11 08:33:00;;;;;;;11.37;6.27;;;;;;;;;;5069984;28;20193;-71
2022/03/11 08:35:53;;;;;;;10.30;6.03;;;;;;;;;;5052708;28;20198;-69
2022/03/11 08:38:44;;;;;;;8.67;5.90;;;;;;;;;;5069509;28;20287;-69
2022/03/11 08:41:27;;;;;;;8.93;6.57;;;;;;;;;;5057533;28;20213;-73
2022/03/11 08:43:57;;;;;;;8.50;5.80;;;;;;;;;;5067433;28;20198;-74
2022/03/11 08:46:26;;;;;;;11.27;6.27;;;;;;;;;;5066307;28;20221;-73
2022/03/11 08:48:55;;;;;;;8.47;5.40;;;;;;;;;;5069768;28;20197;-71
2022/03/11 08:51:24;;;;;;;9.37;5.30;;;;;;;;;;5076672;28;20228;-68
2022/03/11 08:53:55;;;;;;;7.63;5.23;;;;;;;;;;5083429;28;20190;-67
2022/03/11 08:56:25;;;;;;;8.50;5.57;;;;;;;;;;5067453;28;20221;-67
2022/03/11 08:58:52;;;;;;;7.07;5.20;;;;;;;;;;5046563;28;20942;-65
2022/03/11 09:01:21;;;;;;;6.97;5.30;;;;;;;;;;5043383;28;20717;-66
2022/03/11 09:03:51;;;;;;;9.97;5.83;;;;;;;;;;5051617;28;20189;-66
2022/03/11 09:06:22;;;;;;;8.83;5.73;;;;;;;;;;5066423;28;20679;-65
2022/03/11 09:08:52;;;;;;;8.53;5.77;;;;;;;;;;5038075;28;20709;-67
2022/03/11 09:11:29;;;;;;;7.67;5.13;;;;;;;;;;5072091;28;20687;-68
2022/03/11 09:13:57;;;;;;;7.67;5.67;;;;;;;;;;5073655;28;20216;-67
2022/03/11 09:16:28;;;;;;;6.03;5.03;;;;;;;;;;5068308;28;20190;-67
2022/03/11 09:19:01;;;;;;;9.27;5.87;;;;;;;;;;5068886;28;20677;-68
2022/03/11 09:21:30;;;;;;;9.37;5.60;;;;;;;;;;5069425;28;20194;-70
2022/03/11 09:24:02;;;;;;;8.63;5.73;;;;;;;;;;5063894;28;20643;-70
2022/03/11 09:26:32;;;;;;;9.93;6.17;;;;;;;;;;5073174;28;20203;-68
2022/03/11 09:29:23;;;;;;;7.47;5.83;;;;;;;;;;5067851;28;20221;-68
2022/03/11 09:31:56;;;;;;;8.13;6.27;;;;;;;;;;5091163;28;20274;-68
2022/03/11 09:34:27;;;;;;;11.43;6.27;;;;;;;;;;5066286;28;20582;-69
2022/03/11 09:36:59;;;;;;;10.87;6.10;;;;;;;;;;5068778;28;20194;-68
2022/03/11 09:39:32;;;;;;;9.07;5.63;;;;;;;;;;5051879;28;20217;-69
2022/03/11 09:42:06;;;;;;;10.93;6.33;;;;;;;;;;5073649;28;20207;-69
2022/03/11 09:44:35;;;;;;;8.20;5.70;;;;;;;;;;5059205;28;20661;-69
2022/03/11 09:47:06;;;;;;;8.37;6.13;;;;;;;;;;5068522;28;20753;-67
2022/03/11 09:49:36;;;;;;;9.70;5.90;;;;;;;;;;5076829;28;20204;-65
2022/03/11 09:52:06;;;;;;;9.87;6.73;;;;;;;;;;5080348;28;20201;-64
2022/03/11 09:54:37;;;;;;;8.77;5.57;;;;;;;;;;5068135;28;20653;-65
2022/03/11 09:57:09;;;;;;;11.70;5.63;;;;;;;;;;5069302;28;20787;-67
2022/03/11 09:59:40;;;;;;;8.70;6.27;;;;;;;;;;5065090;28;20198;-69
2022/03/11 10:02:24;;;;;;;9.70;6.17;;;;;;;;;;5072420;28;20570;-69
2022/03/11 10:05:00;;;;;;;12.20;6.60;;;;;;;;;;5052946;28;20201;-69
2022/03/11 10:08:05;;;;;;;9.47;6.67;;;;;;;;;;5065041;28;20186;-72
2022/03/11 10:10:35;;;;;;;12.67;6.20;;;;;;;;;;5047339;28;20641;-70
2022/03/11 10:13:10;;;;;;;11.13;6.70;;;;;;;;;;5076668;28;20199;-66
2022/03/11 10:15:41;;;;;;;13.70;6.37;;;;;;;;;;5051899;28;20869;-66
2022/03/11 10:18:16;;;;;;;10.90;5.97;;;;;;;;;;5060879;28;20189;-67
2022/03/11 10:20:46;;;;;;;12.67;6.67;;;;;;;;;;5071561;28;20193;-69
2022/03/11 10:23:28;;;;;;;8.93;5.90;;;;;;;;;;5067384;28;20536;-71
2022/03/11 10:26:05;;;;;;;13.00;6.40;;;;;;;;;;5066218;28;20205;-70
2022/03/11 10:28:35;;;;;;;13.80;6.80;;;;;;;;;;5042386;28;20731;-69
2022/03/11 10:31:13;;;;;;;9.53;6.17;;;;;;;;;;5048792;28;20210;-67
2022/03/11 10:33:42;;;;;;;7.83;6.17;;;;;;;;;;5048366;28;20236;-70
2022/03/11 10:36:13;;;;;;;13.73;6.60;;;;;;;;;;5028779;28;20211;-70
2022/03/11 10:38:46;;;;;;;10.53;7.20;;;;;;;;;;5046521;28;20202;-68
2022/03/11 10:41:17;;;;;;;13.07;7.27;;;;;;;;;;5061300;28;20190;-67
2022/03/11 10:44:02;;;;;;;11.90;6.87;;;;;;;;;;5052524;28;20308;-67
2022/03/11 10:46:34;;;;;;;10.50;7.00;;;;;;;;;;5028450;28;20194;-68
2022/03/11 10:49:05;;;;;;;13.23;7.00;;;;;;;;;;5052461;28;20195;-68
2022/03/11 10:51:36;;;;;;;8.90;6.97;;;;;;;;;;5029615;28;20213;-65
2022/03/11 10:54:07;;;;;;;14.47;5.70;;;;;;;;;;5044964;28;20685;-66
2022/03/11 10:56:43;;;;;;;12.63;6.37;;;;;;;;;;5047559;28;20174;-66
2022/03/11 10:59:21;;;;;;;11.03;5.67;;;;;;;;;;5059969;28;20270;-67
2022/03/11 11:01:59;;;;;;;14.73;5.60;;;;;;;;;;5045911;28;20720;-69
2022/03/11 11:04:35;;;;;;;10.20;6.00;;;;;;;;;;5049258;28;20221;-67
2022/03/11 11:07:07;;;;;;;9.40;5.70;;;;;;;;;;5031903;28;20198;-68
2022/03/11 11:09:39;;;;;;;7.77;6.07;;;;;;;;;;5010906;28;20195;-67
2022/03/11 11:12:15;;;;;;;8.80;5.20;;;;;;;;;;5035613;28;20230;-70
2022/03/11 11:14:49;;;;;;;10.30;5.30;;;;;;;;;;5048584;28;20256;-71
2022/03/11 11:17:21;;;;;;;21.60;5.53;;;;;;;;;;5046949;28;20636;-66
2022/03/11 11:19:56;;;;;;;6.63;5.20;;;;;;;;;;5047105;28;20351;-65
2022/03/11 11:22:32;;;;;;;8.17;5.50;;;;;;;;;;5022151;28;20217;-65
2022/03/11 11:25:06;;;;;;;7.40;4.97;;;;;;;;;;5046778;28;20217;-66
2022/03/11 11:27:34;;;;;;;5.93;5.23;;;;;;;;;;5048318;28;20241;-67
2022/03/11 11:30:01;;;;;;;7.47;4.90;;;;;;;;;;5072155;28;20295;-66
2022/03/11 11:32:35;;;;;;;6.40;4.47;;;;;;;;;;5067725;28;20198;-69
2022/03/11 11:35:25;;;;;;;8.93;4.90;;;;;;;;;;5054010;28;20216;-68
2022/03/11 11:38:01;;;;;;;6.77;4.67;;;;;;;;;;5070207;28;20205;-68
2022/03/11 11:40:48;;;;;;;7.30;4.90;;;;;;;;;;5078263;28;20190;-68
2022/03/11 11:43:26;;;;;;;6.00;4.23;;;;;;;;;;5053844;28;20182;-68
2022/03/11 11:46:13;;;;;;;5.20;4.20;;;;;;;;;;5061360;28;20193;-67
2022/03/11 11:48:45;;;;;;;6.37;4.30;;;;;;;;;;5056039;28;20189;-69
2022/03/11 11:51:35;;;;;;;8.13;4.53;;;;;;;;;;5049595;28;20604;-69
2022/03/11 11:54:08;;;;;;;6.00;3.87;;;;;;;;;;5053266;28;20183;-68
2022/03/11 11:57:00;;;;;;;6.53;4.23;;;;;;;;;;5069256;28;20186;-68
2022/03/11 11:59:37;;;;;;;6.53;3.93;;;;;;;;;;5074561;28;20216;-67
2022/03/11 12:02:32;;;;;;;5.07;4.00;;;;;;;;;;5068138;28;20908;-67
2022/03/11 12:05:24;;;;;;;8.63;4.47;;;;;;;;;;5069512;28;20561;-66
2022/03/11 12:07:56;;;;;;;7.03;4.60;;;;;;;;;;5056537;28;20615;-65
2022/03/11 12:10:28;;;;;;;6.07;4.50;;;;;;;;;;5065904;28;20217;-64
2022/03/11 12:13:00;;;;;;;6.07;4.97;;;;;;;;;;5053210;28;20635;-66
2022/03/11 12:15:34;;;;;;;5.87;5.13;;;;;;;;;;5053462;28;20197;-64
2022/03/11 12:18:05;;;;;;;7.97;6.23;;;;;;;;;;5060341;28;20201;-65
2022/03/11 12:20:48;;;;;;;6.90;6.20;;;;;;;;;;5069477;28;20791;-65
2022/03/11 12:23:18;;;;;;;6.30;5.70;;;;;;;;;;5057963;28;20220;-66
2022/03/11 12:25:58;;;;;;;6.83;6.03;;;;;;;;;;5070835;28;20641;-65
2022/03/11 12:28:38;;;;;;;6.47;5.83;;;;;;;;;;5067944;28;20695;-65
2022/03/11 12:31:33;;;;;;;7.07;6.30;;;;;;;;;;5063625;28;20373;-69
2022/03/11 12:34:06;;;;;;;7.37;5.40;;;;;;;;;;5063653;28;20370;-68
2022/03/11 12:36:42;;;;;;;8.20;6.20;;;;;;;;;;5069970;28;20280;-67
2022/03/11 12:39:10;;;;;;;6.93;6.23;;;;;;;;;;5079303;28;20617;-66
2022/03/11 12:41:45;;;;;;;6.40;5.80;;;;;;;;;;5073848;28;20198;-68
2022/03/11 12:44:23;;;;;;;5.50;5.00;;;;;;;;;;5060438;28;20194;-68
2022/03/11 12:46:54;;;;;;;6.70;5.67;;;;;;;;;;5068147;28;20248;-68
2022/03/11 12:49:29;;;;;;;8.00;5.97;;;;;;;;;;5073186;28;20455;-71
2022/03/11 12:52:16;;;;;;;7.47;5.93;;;;;;;;;;5059132;28;20261;-71
2022/03/11 12:54:47;;;;;;;9.50;5.77;;;;;;;;;;5065184;28;20196;-72
2022/03/11 12:57:18;;;;;;;6.63;5.80;;;;;;;;;;5045589;28;20198;-70
2022/03/11 12:59:49;;;;;;;6.40;5.80;;;;;;;;;;5065223;28;20202;-69
2022/03/11 13:02:22;;;;;;;8.13;5.60;;;;;;;;;;5055412;28;20201;-71
2022/03/11 13:04:52;;;;;;;8.17;6.57;;;;;;;;;;5049575;28;20292;-71
2022/03/11 13:07:32;;;;;;;7.23;6.40;;;;;;;;;;5060435;28;20246;-72
2022/03/11 13:10:21;;;;;;;8.53;7.47;;;;;;;;;;5044420;28;20194;-70
2022/03/11 13:12:53;;;;;;;8.20;6.57;;;;;;;;;;5068400;28;20222;-70
2022/03/11 13:15:26;;;;;;;7.17;6.07;;;;;;;;;;5047608;28;20234;-71
2022/03/11 13:17:57;;;;;;;7.50;6.70;;;;;;;;;;5047891;28;20898;-70
2022/03/11 13:20:44;;;;;;;7.73;6.93;;;;;;;;;;5051357;28;20589;-70
2022/03/11 13:23:14;;;;;;;8.10;6.63;;;;;;;;;;5054377;28;20647;-71
2022/03/11 13:25:59;;;;;;;7.10;6.07;;;;;;;;;;5067835;28;20663;-71
2022/03/11 13:28:45;;;;;;;7.60;6.70;;;;;;;;;;5067290;28;20245;-71
2022/03/11 13:31:26;;;;;;;8.27;6.60;;;;;;;;;;5056566;28;20895;-67
2022/03/11 13:33:57;;;;;;;7.07;6.30;;;;;;;;;;5068194;28;20211;-66
2022/03/11 13:36:33;;;;;;;12.17;6.87;;;;;;;;;;5048500;28;20189;-69
2022/03/11 13:39:19;;;;;;;8.47;7.57;;;;;;;;;;5068861;28;20204;-69
2022/03/11 13:41:58;;;;;;;9.27;7.73;;;;;;;;;;5051064;28;20202;-68
2022/03/11 13:44:27;;;;;;;8.10;7.30;;;;;;;;;;5068400;28;20205;-68
2022/03/11 13:47:05;;;;;;;7.53;6.73;;;;;;;;;;5062571;28;20243;-67
2022/03/11 13:49:39;;;;;;;9.53;7.00;;;;;;;;;;5051982;28;20202;-67
2022/03/11 13:52:50;;;;;;;7.47;6.20;;;;;;;;;;5066305;28;20216;-68
2022/03/11 13:55:19;;;;;;;9.73;7.07;;;;;;;;;;5067566;28;20198;-69
2022/03/11 13:57:52;;;;;;;7.80;7.00;;;;;;;;;;5068045;28;20178;-69
2022/03/11 14:00:24;;;;;;;9.33;6.83;;;;;;;;;;5046452;28;20208;-71
2022/03/11 14:02:57;;;;;;;8.20;6.83;;;;;;;;;;5065576;28;20722;-72
2022/03/11 14:05:29;;;;;;;8.27;7.43;;;;;;;;;;5030187;28;20197;-71
2022/03/11 14:08:05;;;;;;;8.93;7.40;;;;;;;;;;5064552;28;20225;-70
2022/03/11 14:10:48;;;;;;;8.20;7.40;;;;;;;;;;5046600;28;20241;-72
2022/03/11 14:13:16;;;;;;;8.30;6.80;;;;;;;;;;5054605;28;20186;-67
2022/03/11 14:15:48;;;;;;;8.93;6.93;;;;;;;;;;5075519;28;20718;-69
2022/03/11 14:18:26;;;;;;;8.00;7.10;;;;;;;;;;5032770;28;20190;-70
2022/03/11 14:21:03;;;;;;;9.03;7.30;;;;;;;;;;5064690;28;20186;-68
2022/03/11 14:23:35;;;;;;;7.13;6.43;;;;;;;;;;5065419;28;20210;-68
2022/03/11 14:26:06;;;;;;;8.97;8.03;;;;;;;;;;5062401;28;20190;-72
2022/03/11 14:28:36;;;;;;;7.97;6.80;;;;;;;;;;5062323;28;20264;-68
2022/03/11 14:31:09;;;;;;;8.87;7.10;;;;;;;;;;5063165;28;20217;-69
2022/03/11 14:33:42;;;;;;;7.83;7.03;;;;;;;;;;5068213;28;20193;-66
2022/03/11 14:36:15;;;;;;;7.90;6.93;;;;;;;;;;5047908;28;20206;-67
2022/03/11 14:38:47;;;;;;;8.53;7.63;;;;;;;;;;5032502;28;20194;-66
2022/03/11 14:41:19;;;;;;;9.77;7.60;;;;;;;;;;5050091;28;20770;-65
2022/03/11 14:43:49;;;;;;;9.63;7.23;;;;;;;;;;5054249;28;20190;-65
2022/03/11 14:46:25;;;;;;;8.33;7.13;;;;;;;;;;5030591;28;20839;-65
2022/03/11 14:48:56;;;;;;;7.33;6.60;;;;;;;;;;5035006;28;20212;-67
2022/03/11 14:51:26;;;;;;;8.27;6.80;;;;;;;;;;5053928;28;20229;-67
2022/03/11 14:53:56;;;;;;;10.20;7.00;;;;;;;;;;5031977;28;20214;-68
2022/03/11 14:56:30;;;;;;;8.20;7.07;;;;;;;;;;5060130;28;20189;-67
2022/03/11 14:59:03;;;;;;;9.13;6.80;;;;;;;;;;5039725;28;20202;-68
2022/03/11 15:01:32;;;;;;;9.90;8.27;;;;;;;;;;5054970;28;20268;-67
2022/03/11 15:04:02;;;;;;;8.10;7.17;;;;;;;;;;5051045;28;20736;-66
2022/03/11 15:06:32;;;;;;;8.33;7.40;;;;;;;;;;5038785;28;20205;-70
2022/03/11 15:09:22;;;;;;;9.17;6.87;;;;;;;;;;5053947;28;20212;-71
2022/03/11 15:11:51;;;;;;;11.33;8.20;;;;;;;;;;5052716;28;20261;-68
2022/03/11 15:14:27;;;;;;;9.70;7.63;;;;;;;;;;5039299;28;20540;-70
2022/03/11 15:16:59;;;;;;;9.10;7.73;;;;;;;;;;5066625;28;20196;-68
2022/03/11 15:19:32;;;;;;;8.97;7.47;;;;;;;;;;5066670;28;20182;-68